hwlogo.jpg (8581 bytes)
Home Your Weather Products Services Weather On Your Site Contact
HW Version Logo
Weather Info
Your Weather (Options)
Canadian Weather
International Weather
Enter your " Place, State", US Zip Code or ICAO:  
Forecast Information Radar Information
Kugluktuk, Nunavut, Canada  Lat: 67.82N, Lon: 115.15W
ICAO Used: CYCO
Current Conditions
Updated: 12:00 PM CST THU FEB 22 2018
Sun & Moon Information
Ice Crystals
Ice Crystals
Temp: -18°C
Humidity: 77%
Wind Speed: SW 21 MPH
Barometer: 1004 mb
Dewpoint: -21°C
Heat Index: -18°C
Wind Chill: -30°C
Civil Twilight: 8:36 AM CST Moon Phase:
Waxing Gibbous Moon
Sunrise: 9:35 AM CST
Sunset: 6:14 PM CST
Civil Twilight: 7:12 PM CST
Forecast for Kugluktuk, NU:
(Forecast based on TAF for )
0142 PM CST THU FEB 22 2018
  
AFTERNOON EVENING OVERNIGHT
Mostly
Cloudy
Mostly
Cloudy
Mostly
Cloudy
ZoneCast:
Dated: 0142 PM CST THU FEB 22 2018
Afternoon...Mostly cloudy with winds from the southwest at 21 mph.

Evening...Mostly cloudy with winds from the southwest at 21 mph.

Overnight...Mostly cloudy with winds from the southwest at 21 mph.

Original Encoded TAF:
Dated: 0142 PM CST THU FEB 22 2018
2018/02/22 19:42
TAF CYCO 221838Z 2219/2307 23018KT P6SM SCT020 BKN040 
      TEMPO 2219/2307 4SM -SN BKN020 
      RMK NXT FCST BY 230100Z